createdAt,value
2022-07-28T00:00:00.515Z,13.50
2022-07-28T00:02:27.632Z,13.50
2022-07-28T00:04:54.832Z,13.50
2022-07-28T00:07:21.926Z,13.50
2022-07-28T00:09:48.914Z,13.50
2022-07-28T00:12:16.076Z,13.40
2022-07-28T00:14:43.023Z,13.40
2022-07-28T00:17:10.182Z,13.40
2022-07-28T00:19:37.245Z,13.40
2022-07-28T00:22:04.637Z,13.30
2022-07-28T00:24:31.804Z,13.20
2022-07-28T00:26:59.924Z,13.10
2022-07-28T00:29:50.011Z,12.90
2022-07-28T00:32:14.127Z,12.80
2022-07-28T00:34:41.219Z,12.70
2022-07-28T00:37:13.288Z,12.70
2022-07-28T00:39:41.907Z,12.70
2022-07-28T00:42:09.398Z,12.70
2022-07-28T00:44:36.527Z,12.80
2022-07-28T00:47:03.556Z,12.70
2022-07-28T00:49:30.648Z,12.70
2022-07-28T00:51:57.841Z,12.60
2022-07-28T00:54:24.834Z,12.60
2022-07-28T00:56:51.774Z,12.60
2022-07-28T00:59:18.757Z,12.60
2022-07-28T01:01:46.311Z,12.60
2022-07-28T01:04:13.897Z,12.50
2022-07-28T01:07:32.811Z,12.40
2022-07-28T01:10:18.463Z,12.40
2022-07-28T01:13:07.710Z,12.30
2022-07-28T01:15:56.000Z,12.30
2022-07-28T01:18:30.124Z,12.30
2022-07-28T01:21:12.316Z,12.30
2022-07-28T01:24:22.616Z,12.30
2022-07-28T01:27:06.312Z,12.30
2022-07-28T01:30:03.422Z,12.30
2022-07-28T01:32:46.486Z,12.20
2022-07-28T01:35:23.176Z,12.00
2022-07-28T01:37:54.968Z,11.80
2022-07-28T01:40:26.421Z,11.60
2022-07-28T01:43:00.207Z,11.40
2022-07-28T01:45:28.417Z,11.40
2022-07-28T01:47:59.495Z,11.50
2022-07-28T01:50:28.176Z,11.50
2022-07-28T01:52:56.923Z,11.60
2022-07-28T01:55:25.981Z,11.50
2022-07-28T01:57:55.709Z,11.50
2022-07-28T02:00:24.908Z,11.60
2022-07-28T02:02:54.440Z,11.70
2022-07-28T02:05:23.638Z,11.60
2022-07-28T02:07:53.648Z,11.70
2022-07-28T02:10:22.469Z,11.70
2022-07-28T02:12:50.404Z,11.70
2022-07-28T02:15:19.429Z,11.70
2022-07-28T02:17:48.428Z,11.70
2022-07-28T02:20:18.081Z,11.60
2022-07-28T02:22:51.656Z,11.60
2022-07-28T02:25:20.929Z,11.60
2022-07-28T02:28:00.203Z,11.60
2022-07-28T02:30:38.013Z,11.50
2022-07-28T02:33:15.226Z,11.50
2022-07-28T02:35:53.000Z,11.50
2022-07-28T02:38:46.351Z,11.40
2022-07-28T02:41:22.644Z,11.50
2022-07-28T02:43:52.993Z,11.50
2022-07-28T02:46:26.029Z,11.50
2022-07-28T02:49:00.768Z,11.30
2022-07-28T02:51:29.479Z,11.30
2022-07-28T02:53:58.397Z,11.30
2022-07-28T02:56:26.536Z,11.40
2022-07-28T02:58:55.613Z,11.30
2022-07-28T03:01:22.975Z,11.30
2022-07-28T03:03:51.122Z,11.30
2022-07-28T03:06:28.592Z,11.30
2022-07-28T03:08:57.367Z,11.30
2022-07-28T03:11:24.693Z,11.30
2022-07-28T03:13:51.698Z,11.30
2022-07-28T03:16:18.761Z,11.20
2022-07-28T03:18:45.782Z,11.20
2022-07-28T03:21:12.781Z,11.20
2022-07-28T03:23:45.781Z,11.20
2022-07-28T03:26:37.240Z,11.30
2022-07-28T03:29:05.633Z,11.30
2022-07-28T03:31:34.073Z,11.30
2022-07-28T03:34:01.607Z,11.30
2022-07-28T03:36:40.077Z,11.30
2022-07-28T03:39:11.766Z,11.30
2022-07-28T03:41:41.204Z,11.30
2022-07-28T03:44:11.039Z,11.30
2022-07-28T03:46:47.633Z,11.30
2022-07-28T03:49:14.667Z,11.20
2022-07-28T03:51:41.794Z,11.20
2022-07-28T03:54:09.165Z,11.20
2022-07-28T03:56:36.056Z,11.20
2022-07-28T03:59:03.041Z,11.10
2022-07-28T04:01:30.058Z,11.00
2022-07-28T04:03:57.594Z,10.90
2022-07-28T04:06:24.657Z,10.90
2022-07-28T04:08:51.933Z,10.80
2022-07-28T04:11:18.830Z,10.90
2022-07-28T04:13:45.952Z,11.00
2022-07-28T04:16:12.998Z,11.00
2022-07-28T04:18:40.007Z,11.00
2022-07-28T04:21:07.012Z,11.00
2022-07-28T04:23:34.089Z,11.10
2022-07-28T04:26:01.014Z,11.10
2022-07-28T04:28:27.951Z,11.10
2022-07-28T04:30:54.972Z,11.10
2022-07-28T04:33:22.088Z,11.10
2022-07-28T04:35:49.053Z,11.10
2022-07-28T04:38:17.994Z,10.90
2022-07-28T04:40:45.608Z,10.90
2022-07-28T04:43:12.995Z,10.80
2022-07-28T04:45:41.116Z,10.80
2022-07-28T04:48:14.191Z,10.70
2022-07-28T04:50:45.541Z,10.80
2022-07-28T04:53:12.951Z,10.80
2022-07-28T04:55:40.129Z,10.90
2022-07-28T04:58:07.710Z,10.90
2022-07-28T05:00:36.499Z,10.90
2022-07-28T05:03:04.290Z,11.00
2022-07-28T05:05:31.717Z,11.00
2022-07-28T05:07:59.076Z,11.10
2022-07-28T05:10:26.008Z,11.10
2022-07-28T05:12:54.633Z,11.10
2022-07-28T05:15:21.665Z,11.10
2022-07-28T05:17:50.205Z,11.20
2022-07-28T05:20:17.438Z,11.20
2022-07-28T05:22:53.722Z,11.30
2022-07-28T05:25:23.687Z,11.30
2022-07-28T05:27:53.065Z,11.30
2022-07-28T05:30:21.004Z,11.40
2022-07-28T05:32:49.551Z,11.60
2022-07-28T05:35:17.096Z,11.60
2022-07-28T05:37:44.207Z,11.70
2022-07-28T05:40:14.840Z,11.80
2022-07-28T05:42:43.062Z,11.90
2022-07-28T05:45:16.511Z,11.90
2022-07-28T05:47:52.190Z,12.10
2022-07-28T05:50:26.023Z,12.40
2022-07-28T05:52:53.030Z,12.60
2022-07-28T05:55:20.026Z,12.80
2022-07-28T05:57:47.200Z,13.00
2022-07-28T06:00:18.715Z,13.30
2022-07-28T06:02:49.131Z,13.60
2022-07-28T06:05:18.714Z,13.80
2022-07-28T06:07:47.448Z,14.10
2022-07-28T06:10:18.180Z,14.30
2022-07-28T06:12:48.306Z,14.60
2022-07-28T06:15:22.402Z,14.80
2022-07-28T06:17:55.222Z,15.00
2022-07-28T06:20:23.840Z,15.20
2022-07-28T06:22:53.710Z,15.40
2022-07-28T06:25:27.280Z,15.60
2022-07-28T06:27:58.480Z,15.80
2022-07-28T06:30:26.026Z,16.00
2022-07-28T06:32:53.443Z,16.10
2022-07-28T06:35:21.023Z,16.30
2022-07-28T06:37:50.693Z,16.20
2022-07-28T06:40:20.135Z,16.00
2022-07-28T06:42:47.663Z,16.10
2022-07-28T06:45:19.722Z,16.40
2022-07-28T06:47:49.040Z,16.60
2022-07-28T06:50:25.954Z,16.80
2022-07-28T06:52:59.185Z,16.90
2022-07-28T06:55:28.462Z,17.00
2022-07-28T06:58:06.242Z,17.20
2022-07-28T07:00:33.508Z,17.30
2022-07-28T07:03:01.185Z,17.40
2022-07-28T07:05:32.033Z,17.40
2022-07-28T07:07:59.551Z,17.30
2022-07-28T07:10:26.729Z,17.40
2022-07-28T07:12:53.979Z,17.20
2022-07-28T07:15:20.884Z,17.40
2022-07-28T07:17:47.913Z,17.80
2022-07-28T07:20:17.165Z,18.30
2022-07-28T07:22:47.403Z,18.80
2022-07-28T07:25:17.295Z,19.20
2022-07-28T07:27:45.734Z,19.30
2022-07-28T07:30:14.596Z,19.20
2022-07-28T07:32:42.188Z,19.30
2022-07-28T07:35:09.813Z,19.40
2022-07-28T07:37:36.762Z,19.50
2022-07-28T07:40:05.845Z,19.60
2022-07-28T07:42:33.272Z,19.60
2022-07-28T07:45:00.355Z,19.40
2022-07-28T07:47:27.837Z,19.30
2022-07-28T07:49:54.831Z,19.30
2022-07-28T07:52:21.895Z,19.10
2022-07-28T07:54:48.863Z,19.20
2022-07-28T07:57:15.905Z,19.10
2022-07-28T07:59:42.911Z,19.10
2022-07-28T08:02:09.999Z,19.10
2022-07-28T08:04:38.571Z,19.40
2022-07-28T08:07:07.370Z,19.40
2022-07-28T08:09:34.898Z,19.40
2022-07-28T08:12:02.433Z,19.60
2022-07-28T08:14:29.491Z,19.80
2022-07-28T08:16:58.485Z,19.90
2022-07-28T08:19:26.321Z,20.00
2022-07-28T08:21:55.328Z,20.00
2022-07-28T08:24:32.435Z,19.90
2022-07-28T08:27:02.204Z,19.90
2022-07-28T08:29:29.440Z,20.10
2022-07-28T08:31:57.218Z,20.40
2022-07-28T08:34:31.201Z,20.60
2022-07-28T08:37:03.185Z,20.40
2022-07-28T08:39:34.887Z,20.40
2022-07-28T08:42:07.098Z,20.50
2022-07-28T08:44:47.895Z,20.50
2022-07-28T08:47:16.709Z,20.70
2022-07-28T08:49:43.946Z,20.90
2022-07-28T08:52:13.710Z,21.00
2022-07-28T08:54:48.835Z,21.00
2022-07-28T08:57:29.640Z,21.10
2022-07-28T08:59:56.816Z,21.00
2022-07-28T09:02:29.041Z,21.30
2022-07-28T09:04:57.830Z,21.30
2022-07-28T09:07:25.539Z,21.40
2022-07-28T09:09:52.653Z,21.60
2022-07-28T09:12:27.194Z,21.10
2022-07-28T09:14:54.786Z,21.10
2022-07-28T09:17:21.704Z,20.90
2022-07-28T09:19:48.778Z,21.00
2022-07-28T09:22:15.737Z,21.20
2022-07-28T09:24:46.616Z,21.20
2022-07-28T09:27:18.103Z,21.20
2022-07-28T09:29:48.598Z,21.40
2022-07-28T09:32:17.159Z,21.70
2022-07-28T09:34:51.748Z,21.90
2022-07-28T09:37:27.627Z,21.90
2022-07-28T09:40:03.813Z,22.30
2022-07-28T09:42:46.847Z,22.70
2022-07-28T09:45:23.022Z,23.00
2022-07-28T09:48:10.317Z,23.20
2022-07-28T09:50:42.269Z,23.40
2022-07-28T09:53:22.906Z,23.50
2022-07-28T09:56:02.807Z,23.60
2022-07-28T09:58:30.904Z,23.30
2022-07-28T10:01:10.890Z,23.10
2022-07-28T10:03:42.851Z,23.20
2022-07-28T10:06:16.867Z,23.30
2022-07-28T10:08:49.506Z,23.30
2022-07-28T10:11:24.698Z,23.50
2022-07-28T10:14:06.514Z,23.70
2022-07-28T10:16:53.347Z,23.20
2022-07-28T10:19:20.513Z,23.30
2022-07-28T10:21:50.004Z,23.50
2022-07-28T10:24:24.151Z,23.60
2022-07-28T10:26:52.694Z,24.00
2022-07-28T10:29:22.419Z,24.00
2022-07-28T10:31:55.530Z,24.00
2022-07-28T10:34:39.316Z,23.80
2022-07-28T10:37:10.528Z,24.00
2022-07-28T10:39:45.105Z,24.10
2022-07-28T10:42:12.619Z,24.10
2022-07-28T10:44:41.555Z,24.10
2022-07-28T10:47:18.607Z,24.20
2022-07-28T10:49:48.969Z,24.30
2022-07-28T10:55:49.465Z,24.80
2022-07-28T10:58:46.459Z,24.60
2022-07-28T11:01:51.268Z,24.30
2022-07-28T11:04:49.134Z,23.70
2022-07-28T11:07:18.548Z,23.40
2022-07-28T11:09:49.707Z,23.60
2022-07-28T11:12:47.427Z,23.90
2022-07-28T11:15:36.632Z,23.80
2022-07-28T11:18:08.831Z,23.70
2022-07-28T11:20:56.407Z,24.30
2022-07-28T11:23:47.580Z,24.40
2022-07-28T11:26:36.533Z,24.30
2022-07-28T11:29:03.923Z,24.60
2022-07-28T11:31:48.916Z,25.00
2022-07-28T11:34:21.264Z,25.30
2022-07-28T11:37:07.845Z,25.20
2022-07-28T11:39:43.822Z,25.20
2022-07-28T11:42:35.764Z,25.10
2022-07-28T11:45:37.769Z,25.50
2022-07-28T11:48:18.902Z,25.70
2022-07-28T11:51:04.312Z,25.60
2022-07-28T11:53:38.507Z,25.10
2022-07-28T11:56:10.691Z,25.10
2022-07-28T11:58:39.269Z,25.40
2022-07-28T12:01:17.790Z,25.40
2022-07-28T12:03:55.254Z,25.20
2022-07-28T12:06:27.356Z,25.40
2022-07-28T12:09:04.167Z,25.90
2022-07-28T12:11:41.099Z,26.00
2022-07-28T12:14:16.125Z,25.80
2022-07-28T12:16:46.268Z,26.00
2022-07-28T12:19:18.999Z,26.00
2022-07-28T12:21:53.129Z,26.10
2022-07-28T12:24:30.899Z,26.50
2022-07-28T12:27:00.237Z,26.80
2022-07-28T12:29:35.912Z,26.10
2022-07-28T12:32:08.992Z,25.90
2022-07-28T12:34:37.724Z,26.20
2022-07-28T12:37:06.466Z,26.60
2022-07-28T12:39:36.863Z,26.80
2022-07-28T12:42:08.841Z,26.90
2022-07-28T12:44:48.091Z,27.30
2022-07-28T12:47:25.965Z,27.50
2022-07-28T12:50:16.636Z,27.60
2022-07-28T12:53:01.229Z,27.70
2022-07-28T12:55:30.621Z,27.40
2022-07-28T12:57:58.117Z,27.40
2022-07-28T13:00:34.059Z,27.50
2022-07-28T13:03:20.737Z,27.10
2022-07-28T13:06:03.391Z,26.40
2022-07-28T13:08:46.661Z,26.40
2022-07-28T13:14:03.479Z,26.70
2022-07-28T13:16:30.549Z,26.40
2022-07-28T13:19:03.982Z,26.10
2022-07-28T13:21:58.681Z,26.00
2022-07-28T13:24:28.280Z,26.30
2022-07-28T13:26:56.390Z,26.70
2022-07-28T13:29:23.795Z,26.70
2022-07-28T13:31:50.899Z,26.60
2022-07-28T13:34:18.223Z,26.30
2022-07-28T13:36:45.403Z,26.40
2022-07-28T13:39:14.025Z,26.30
2022-07-28T13:41:56.114Z,26.30
2022-07-28T13:44:27.228Z,26.50
2022-07-28T13:46:55.244Z,27.00
2022-07-28T13:49:23.452Z,26.80
2022-07-28T13:51:51.487Z,26.80
2022-07-28T13:54:20.535Z,27.10
2022-07-28T13:56:48.331Z,27.20
2022-07-28T13:59:15.318Z,27.10
2022-07-28T14:01:42.583Z,27.20
2022-07-28T14:04:14.982Z,27.20
2022-07-28T14:06:45.318Z,27.20
2022-07-28T14:09:17.820Z,27.10
2022-07-28T14:11:49.746Z,27.30
2022-07-28T14:14:23.867Z,27.40
2022-07-28T14:16:55.028Z,27.30
2022-07-28T14:19:39.566Z,26.90
2022-07-28T14:22:13.229Z,26.20
2022-07-28T14:24:44.414Z,25.90
2022-07-28T14:27:11.557Z,26.10
2022-07-28T14:29:39.421Z,26.40
2022-07-28T14:32:06.761Z,26.70
2022-07-28T14:34:34.399Z,26.70
2022-07-28T14:37:03.436Z,26.80
2022-07-28T14:39:37.013Z,26.60
2022-07-28T14:42:04.979Z,26.70
2022-07-28T14:44:31.979Z,26.70
2022-07-28T14:46:59.238Z,26.80
2022-07-28T14:49:26.351Z,26.90
2022-07-28T14:51:53.544Z,26.90
2022-07-28T14:54:20.651Z,26.60
2022-07-28T14:56:47.554Z,26.60
2022-07-28T14:59:14.525Z,26.70
2022-07-28T15:01:41.558Z,26.80
2022-07-28T15:04:10.182Z,26.90
2022-07-28T15:06:37.158Z,27.00
2022-07-28T15:09:04.504Z,26.90
2022-07-28T15:11:31.495Z,26.70
2022-07-28T15:13:59.474Z,26.50
2022-07-28T15:16:26.562Z,26.20
2022-07-28T15:18:54.236Z,26.30
2022-07-28T15:21:21.281Z,26.60
2022-07-28T15:23:48.507Z,26.40
2022-07-28T15:26:15.523Z,26.50
2022-07-28T15:28:42.570Z,26.40
2022-07-28T15:31:09.589Z,26.30
2022-07-28T15:33:39.977Z,25.90
2022-07-28T15:36:15.028Z,25.90
2022-07-28T15:38:41.926Z,26.00
2022-07-28T15:41:15.052Z,26.00
2022-07-28T15:43:42.282Z,25.90
2022-07-28T15:46:12.927Z,25.70
2022-07-28T15:48:44.007Z,25.50
2022-07-28T15:51:11.735Z,25.30
2022-07-28T15:53:39.397Z,25.40
2022-07-28T15:56:06.523Z,25.50
2022-07-28T15:58:33.789Z,25.70
2022-07-28T16:01:01.781Z,25.80
2022-07-28T16:03:30.291Z,25.70
2022-07-28T16:05:58.669Z,25.50
2022-07-28T16:08:26.371Z,25.50
2022-07-28T16:10:54.618Z,25.30
2022-07-28T16:13:36.013Z,25.40
2022-07-28T16:16:12.903Z,25.60
2022-07-28T16:18:42.924Z,25.50
2022-07-28T16:21:10.763Z,25.50
2022-07-28T16:23:38.238Z,25.60
2022-07-28T16:26:07.745Z,25.50
2022-07-28T16:28:35.635Z,25.50
2022-07-28T16:31:02.829Z,25.50
2022-07-28T16:33:33.580Z,25.60
2022-07-28T16:36:02.031Z,25.70
2022-07-28T16:38:29.159Z,25.70
2022-07-28T16:40:57.099Z,25.60
2022-07-28T16:43:24.462Z,25.80
2022-07-28T16:45:51.480Z,25.90
2022-07-28T16:48:18.436Z,25.90
2022-07-28T16:50:46.171Z,25.90
2022-07-28T16:53:14.157Z,25.80
2022-07-28T16:55:45.360Z,25.60
2022-07-28T16:58:12.419Z,25.40
2022-07-28T17:00:39.352Z,25.40
2022-07-28T17:03:06.461Z,25.50
2022-07-28T17:05:33.447Z,25.50
2022-07-28T17:08:00.401Z,25.50
2022-07-28T17:10:27.816Z,25.60
2022-07-28T17:12:55.227Z,25.60
2022-07-28T17:15:23.555Z,25.60
2022-07-28T17:17:52.155Z,25.40
2022-07-28T17:20:20.832Z,25.50
2022-07-28T17:22:48.123Z,25.30
2022-07-28T17:25:47.281Z,25.20
2022-07-28T17:28:04.386Z,25.10
2022-07-28T17:30:33.003Z,25.10
2022-07-28T17:33:07.707Z,25.00
2022-07-28T17:35:36.602Z,24.90
2022-07-28T17:38:07.250Z,24.80
2022-07-28T17:40:34.292Z,24.80
2022-07-28T17:43:01.507Z,24.70
2022-07-28T17:45:28.491Z,24.70
2022-07-28T17:47:55.380Z,24.70
2022-07-28T17:50:22.362Z,24.70
2022-07-28T17:52:49.284Z,24.70
2022-07-28T17:55:57.996Z,24.70
2022-07-28T17:58:29.107Z,24.50
2022-07-28T18:01:10.027Z,24.40
2022-07-28T18:03:57.608Z,24.40
2022-07-28T18:06:34.483Z,24.30
2022-07-28T18:09:10.492Z,24.20
2022-07-28T18:11:57.045Z,24.20
2022-07-28T18:14:29.840Z,24.10
2022-07-28T18:16:57.942Z,24.00
2022-07-28T18:19:26.326Z,23.90
2022-07-28T18:21:53.622Z,23.70
2022-07-28T18:24:22.412Z,23.60
2022-07-28T18:26:51.612Z,23.60
2022-07-28T18:29:20.274Z,23.60
2022-07-28T18:31:48.894Z,23.50
2022-07-28T18:34:16.360Z,23.40
2022-07-28T18:36:43.829Z,23.30
2022-07-28T18:39:11.016Z,23.20
2022-07-28T18:41:46.933Z,23.20
2022-07-28T18:44:17.232Z,23.20
2022-07-28T18:46:44.663Z,23.20
2022-07-28T18:49:12.081Z,23.10
2022-07-28T18:51:39.045Z,23.00
2022-07-28T18:54:06.814Z,23.00
2022-07-28T18:56:33.728Z,22.90
2022-07-28T18:59:00.724Z,22.90
2022-07-28T19:01:27.701Z,22.80
2022-07-28T19:03:54.747Z,22.80
2022-07-28T19:06:21.685Z,22.70
2022-07-28T19:08:48.767Z,22.70
2022-07-28T19:11:19.631Z,22.60
2022-07-28T19:13:47.791Z,22.60
2022-07-28T19:16:15.023Z,22.50
2022-07-28T19:18:42.109Z,22.40
2022-07-28T19:21:09.322Z,22.30
2022-07-28T19:23:36.348Z,22.30
2022-07-28T19:26:03.772Z,22.20
2022-07-28T19:28:30.823Z,22.10
2022-07-28T19:30:58.682Z,22.10
2022-07-28T19:33:26.371Z,22.00
2022-07-28T19:35:53.461Z,22.00
2022-07-28T19:38:20.632Z,21.90
2022-07-28T19:40:47.613Z,21.80
2022-07-28T19:43:14.660Z,21.80
2022-07-28T19:45:41.666Z,21.70
2022-07-28T19:48:08.784Z,21.60
2022-07-28T19:50:38.573Z,21.50
2022-07-28T19:53:05.784Z,21.40
2022-07-28T19:55:40.133Z,21.30
2022-07-28T19:58:07.264Z,21.20
2022-07-28T20:00:34.408Z,21.10
2022-07-28T20:03:01.508Z,21.00
2022-07-28T20:05:28.524Z,20.90
2022-07-28T20:07:55.820Z,20.80
2022-07-28T20:10:22.836Z,20.70
2022-07-28T20:12:49.780Z,20.60
2022-07-28T20:15:16.768Z,20.60
2022-07-28T20:17:43.727Z,20.50
2022-07-28T20:20:13.222Z,20.50
2022-07-28T20:22:41.416Z,20.40
2022-07-28T20:25:10.375Z,20.30
2022-07-28T20:27:40.464Z,20.30
2022-07-28T20:30:10.314Z,20.20
2022-07-28T20:32:38.385Z,20.20
2022-07-28T20:35:09.295Z,20.20
2022-07-28T20:37:37.677Z,20.00
2022-07-28T20:40:06.772Z,20.00
2022-07-28T20:42:33.963Z,19.90
2022-07-28T20:45:01.136Z,19.90
2022-07-28T20:47:28.260Z,19.90
2022-07-28T20:49:55.415Z,19.90
2022-07-28T20:52:23.436Z,19.80
2022-07-28T20:54:54.220Z,19.80
2022-07-28T20:57:22.681Z,19.70
2022-07-28T20:59:51.292Z,19.60
2022-07-28T21:02:21.998Z,19.60
2022-07-28T21:04:50.578Z,19.50
2022-07-28T21:08:00.441Z,19.50
2022-07-28T21:10:07.971Z,19.50
2022-07-28T21:12:36.962Z,19.40
2022-07-28T21:15:05.890Z,19.40
2022-07-28T21:17:33.084Z,19.30
2022-07-28T21:20:00.272Z,19.30
2022-07-28T21:22:27.331Z,19.20
2022-07-28T21:24:55.659Z,19.10
2022-07-28T21:27:23.756Z,19.10
2022-07-28T21:32:18.648Z,19.00
2022-07-28T21:34:45.805Z,18.90
2022-07-28T21:37:13.641Z,18.90
2022-07-28T21:39:41.014Z,18.90
2022-07-28T21:42:09.028Z,18.90
2022-07-28T21:44:37.459Z,18.80
2022-07-28T21:47:05.003Z,18.70
2022-07-28T21:49:32.313Z,18.70
2022-07-28T21:51:59.665Z,18.70
2022-07-28T21:54:27.052Z,18.60
2022-07-28T21:56:53.986Z,18.60
2022-07-28T21:59:21.191Z,18.60
2022-07-28T22:01:48.314Z,18.50
2022-07-28T22:04:15.941Z,18.50
2022-07-28T22:06:44.661Z,18.50
2022-07-28T22:09:14.550Z,18.40
2022-07-28T22:11:41.940Z,18.40
2022-07-28T22:14:09.110Z,18.40
2022-07-28T22:16:36.113Z,18.40
2022-07-28T22:19:03.803Z,18.30
2022-07-28T22:23:57.813Z,18.30
2022-07-28T22:26:24.798Z,18.20
2022-07-28T22:28:51.995Z,18.20
2022-07-28T22:31:19.001Z,18.20
2022-07-28T22:33:46.000Z,18.10
2022-07-28T22:36:12.951Z,18.10
2022-07-28T22:38:39.895Z,18.10
2022-07-28T22:41:06.967Z,18.10
2022-07-28T22:43:34.057Z,18.10
2022-07-28T22:46:01.314Z,18.10
2022-07-28T22:48:28.713Z,18.10
2022-07-28T22:50:55.794Z,18.00
2022-07-28T22:53:22.936Z,18.00
2022-07-28T22:55:49.888Z,18.00
2022-07-28T22:58:16.910Z,17.90
2022-07-28T23:00:44.128Z,17.90
2022-07-28T23:03:13.285Z,17.90
2022-07-28T23:05:40.542Z,17.90
2022-07-28T23:08:07.515Z,17.90
2022-07-28T23:10:34.857Z,18.00
2022-07-28T23:13:02.027Z,17.90
2022-07-28T23:15:40.797Z,17.90
2022-07-28T23:18:10.776Z,17.80
2022-07-28T23:20:38.999Z,17.80
2022-07-28T23:23:06.607Z,17.80
2022-07-28T23:25:36.285Z,17.70
2022-07-28T23:28:03.481Z,17.70
2022-07-28T23:30:30.378Z,17.70
2022-07-28T23:32:57.450Z,17.70
2022-07-28T23:35:24.659Z,17.60
2022-07-28T23:37:51.801Z,17.60
2022-07-28T23:40:18.704Z,17.50
2022-07-28T23:42:45.615Z,17.40
2022-07-28T23:45:12.632Z,17.50
2022-07-28T23:47:39.624Z,17.40
2022-07-28T23:50:07.001Z,17.40
2022-07-28T23:52:33.966Z,17.50
2022-07-28T23:55:00.877Z,17.50
2022-07-28T23:57:31.401Z,17.40
